الصفحة الرئيسية
METAR-TAF:

METAR-TAF

مطار :

جزيرة بياك, إندونيسيا

دائرة عرض: 01-11S, خط طول: 136-07E, ارتفاع: 11 متر

مراقبة الطقس الحالي

تاريخ ووقت الإصدار 8ساعات و 28 دقيقة قبل الساعة 00:00UTC
رياح هادئة
درجة الحرارة 29°درجة مئوية
الرطوبة 84%
ضغط 1010 hPa
الرؤية 10 كم أو أكثر
غيوم متفرقة على ارتفاع 1800 قدم

METAR: WABB 310000Z 00000KT 9999 SCT018 29/26 Q1010 NOSIG

زمن: 15:28 (08:28 UTC)

توقعات

تاريخ ووقت الإصدار 3ساعات و 28 دقيقة قبل الساعة 05:00UTC
التوقعات صالحة من31 الساعة 06 UTC إلى 01 الساعة 12 UTC
ريح 8 عقدةمن اتجاهات متغيرة
الرؤية: 8000 متر
غيوم مفككة على ارتفاع 1800 قدم
مطر خفيف
مؤقت
من 31 الساعة 06 UTC إلى 31 الساعة 10 UTC
الرؤية: 4000 متر
غيوم قليلة على ارتفاع 1700 قدم, مزنة ركامية.
عاصفة رعدية, مطر خفيف
أصبح
من 31 الساعة 10 UTC إلى 31 الساعة 12 UTC
ريح عقدة من الشمال
غيوم متفرقة على ارتفاع 1800 قدم

TAF: WABB 310500Z 3106/0112 VRB08KT 8000 -RA BKN018 TEMPO 3106/3110 4000 -TSRA FEW017CB BECMG 3110/3112 00000KT NSW SCT018

أرصاد الطقس والتوقعات من أكثر من 4000 مطار (تقارير الطقس للمطار METAR والتنبؤ بالطقس بالمطارTAF).

المحطات المتاحة هي النقط الصفراء والحمراء على الخريطة.

حرك المؤشر فوق النقطة لمعرفة اسم المحطة.

ثم انقر لمعرفة أرصاد وتوقعات الطقس.

لتغيير الخارطة: اضغط على الأزرار الخضراء مع رمز الصليب الأسود للتكبير. على الزر الأخضر مع شرطة للتصغير، أو على الأسهم الخضراء للخرائط المجاورة.


METAR-TAF: